Time;durP1;ratioP1;P1;durP2;ratioP2;P2;SDS_P1;SDS_P2;PMS_P1;PMS_P2;Temp;Humidity;BMP_temperature;BMP_pressure;BME280_temperature;BME280_humidity;BME280_pressure;Samples;Min_cycle;Max_cycle;Signal;HPM_P1;HPM_P2
2022/10/30 00:00:41;;;;;;;11.13;9.77;;;;;;;9.92;100.00;97636.81;4970720;28;20870;-68
2022/10/30 00:03:12;;;;;;;12.10;8.97;;;;;;;9.92;100.00;97640.31;4949602;28;20572;-67
2022/10/30 00:05:43;;;;;;;10.77;9.67;;;;;;;9.91;100.00;97638.66;4946568;28;21009;-66
2022/10/30 00:08:13;;;;;;;11.10;9.73;;;;;;;9.90;100.00;97633.50;4971251;28;20235;-67
2022/10/30 00:10:42;;;;;;;12.63;9.80;;;;;;;9.92;100.00;97634.16;4946782;28;20345;-67
2022/10/30 00:13:10;;;;;;;10.47;8.63;;;;;;;9.95;100.00;97631.19;4927275;28;20216;-69
2022/10/30 00:15:40;;;;;;;10.93;9.70;;;;;;;9.98;100.00;97630.84;4966438;28;20208;-69
2022/10/30 00:18:08;;;;;;;15.53;9.90;;;;;;;9.92;100.00;97634.16;4970424;28;20221;-66
2022/10/30 00:20:36;;;;;;;17.27;10.03;;;;;;;9.90;100.00;97634.34;4923151;28;20790;-64
2022/10/30 00:23:05;;;;;;;10.73;9.73;;;;;;;9.89;100.00;97630.06;4968778;28;20674;-67
2022/10/30 00:25:35;;;;;;;11.37;10.17;;;;;;;9.85;100.00;97623.44;4951024;28;20204;-65
2022/10/30 00:28:03;;;;;;;11.33;9.60;;;;;;;9.88;100.00;97633.69;4927442;28;20236;-65
2022/10/30 00:30:31;;;;;;;10.27;9.47;;;;;;;9.83;100.00;97625.41;4966588;28;20255;-65
2022/10/30 00:33:01;;;;;;;11.77;10.00;;;;;;;9.82;100.00;97626.41;4970576;28;20209;-65
2022/10/30 00:35:29;;;;;;;10.80;9.70;;;;;;;9.79;100.00;97627.59;4935651;28;20212;-65
2022/10/30 00:37:59;;;;;;;14.40;9.60;;;;;;;9.75;100.00;97626.28;4964896;28;20239;-66
2022/10/30 00:40:28;;;;;;;10.37;9.30;;;;;;;9.69;100.00;97625.09;4970422;28;20227;-66
2022/10/30 00:42:57;;;;;;;12.20;9.90;;;;;;;9.72;100.00;97625.75;4947937;28;20250;-66
2022/10/30 00:45:25;;;;;;;9.93;9.03;;;;;;;9.69;100.00;97626.94;4926567;28;20726;-65
2022/10/30 00:47:56;;;;;;;11.10;9.90;;;;;;;9.62;100.00;97618.84;4969324;28;20790;-67
2022/10/30 00:50:28;;;;;;;13.20;10.00;;;;;;;9.58;100.00;97621.97;4956221;28;20263;-68
2022/10/30 00:52:58;;;;;;;15.03;11.00;;;;;;;9.56;100.00;97619.50;4969613;28;20208;-67
2022/10/30 00:55:30;;;;;;;15.07;9.80;;;;;;;9.54;100.00;97617.03;4971701;28;20205;-67
2022/10/30 00:57:59;;;;;;;10.70;9.77;;;;;;;9.54;100.00;97624.97;4952245;28;20896;-68
2022/10/30 01:00:29;;;;;;;10.53;9.57;;;;;;;9.51;100.00;97616.53;4929410;28;20208;-70
2022/10/30 01:02:57;;;;;;;11.40;9.60;;;;;;;9.49;100.00;97610.59;4967787;28;20397;-70
2022/10/30 01:05:29;;;;;;;11.03;9.93;;;;;;;9.49;100.00;97614.06;4954662;28;20433;-69
2022/10/30 01:07:57;;;;;;;12.27;9.10;;;;;;;9.48;100.00;97609.75;4968398;28;20759;-68
2022/10/30 01:10:26;;;;;;;11.27;10.37;;;;;;;9.43;100.00;97603.31;4970777;28;20235;-70
2022/10/30 01:12:55;;;;;;;14.80;10.07;;;;;;;9.44;100.00;97605.78;4930594;28;20212;-69
2022/10/30 01:15:27;;;;;;;10.83;9.87;;;;;;;9.49;100.00;97605.31;4928361;28;20216;-69
2022/10/30 01:18:10;;;;;;;10.60;9.60;;;;;;;9.53;100.00;97609.25;4948474;28;20302;-69
2022/10/30 01:20:59;;;;;;;11.20;10.00;;;;;;;9.51;100.00;97598.84;4953691;28;20666;-68
2022/10/30 01:23:37;;;;;;;11.57;10.37;;;;;;;9.58;100.00;97601.66;4975049;28;20271;-67
2022/10/30 01:26:12;;;;;;;17.33;10.13;;;;;;;9.63;100.00;97603.78;4971801;28;20200;-67
2022/10/30 01:28:51;;;;;;;11.20;9.97;;;;;;;9.61;100.00;97600.47;4964733;28;20238;-65
2022/10/30 01:31:31;;;;;;;10.47;9.53;;;;;;;9.64;100.00;97589.56;4931188;28;20681;-67
2022/10/30 01:34:08;;;;;;;10.70;9.47;;;;;;;9.54;100.00;97574.69;4924029;28;20212;-69
2022/10/30 01:36:40;;;;;;;11.23;9.80;;;;;;;9.59;100.00;97582.13;4950898;28;20524;-69
2022/10/30 01:39:13;;;;;;;11.73;10.53;;;;;;;9.57;100.00;97584.13;4973731;28;20220;-69
2022/10/30 01:41:41;;;;;;;11.37;10.30;;;;;;;9.57;100.00;97578.84;4974860;28;20211;-67
2022/10/30 01:44:14;;;;;;;11.33;8.90;;;;;;;9.58;100.00;97569.91;4976526;28;20246;-67
2022/10/30 01:46:48;;;;;;;10.37;9.27;;;;;;;9.49;100.00;97563.78;4933840;28;20212;-69
2022/10/30 01:49:35;;;;;;;15.20;12.13;;;;;;;9.53;100.00;97570.41;4916607;28;20311;-66
2022/10/30 01:52:11;;;;;;;14.33;11.17;;;;;;;9.52;100.00;97571.41;4975937;28;20216;-69
2022/10/30 01:54:46;;;;;;;12.43;11.13;;;;;;;9.53;100.00;97567.75;4951280;28;20215;-67
2022/10/30 01:57:23;;;;;;;12.07;10.83;;;;;;;9.55;100.00;97563.13;4976526;28;20220;-68
2022/10/30 01:59:54;;;;;;;10.93;9.93;;;;;;;9.56;100.00;97562.13;4956980;28;22391;-69
2022/10/30 02:02:23;;;;;;;12.73;10.07;;;;;;;9.59;100.00;97568.06;4981363;28;20208;-69
2022/10/30 02:04:51;;;;;;;14.30;10.43;;;;;;;9.62;100.00;97570.38;4939627;28;20278;-68
2022/10/30 02:07:21;;;;;;;13.33;10.50;;;;;;;9.62;100.00;97571.22;4973752;28;20242;-68
2022/10/30 02:09:51;;;;;;;12.07;9.83;;;;;;;9.61;100.00;97569.56;4944977;28;20212;-69
2022/10/30 02:12:19;;;;;;;13.40;10.00;;;;;;;9.68;100.00;97575.03;4977199;28;20204;-67
2022/10/30 02:14:50;;;;;;;16.53;10.87;;;;;;;9.67;100.00;97570.72;4954924;28;20223;-65
2022/10/30 02:17:19;;;;;;;11.33;10.13;;;;;;;9.69;100.00;97574.03;4975686;28;20232;-67
2022/10/30 02:19:47;;;;;;;11.30;10.03;;;;;;;9.70;100.00;97579.13;4941014;28;20236;-66
2022/10/30 02:22:17;;;;;;;11.87;10.43;;;;;;;9.70;100.00;97579.13;4976137;28;20770;-67
2022/10/30 02:24:45;;;;;;;11.90;9.67;;;;;;;9.67;100.00;97579.47;4974739;28;21184;-69
2022/10/30 02:27:13;;;;;;;11.10;9.80;;;;;;;9.64;100.00;97582.47;4947049;28;20228;-65
2022/10/30 02:29:42;;;;;;;11.13;10.07;;;;;;;9.65;100.00;97586.75;4956138;28;20216;-68
2022/10/30 02:32:10;;;;;;;11.17;10.03;;;;;;;9.66;100.00;97579.63;4974359;28;20918;-67
2022/10/30 02:34:39;;;;;;;21.63;10.60;;;;;;;9.61;100.00;97574.84;4949481;28;22022;-65
2022/10/30 02:37:08;;;;;;;10.00;9.00;;;;;;;9.63;100.00;97577.31;4969186;28;20236;-68
2022/10/30 02:39:37;;;;;;;13.13;10.20;;;;;;;9.63;100.00;97582.63;4973537;28;20954;-67
2022/10/30 02:42:06;;;;;;;11.97;10.87;;;;;;;9.61;100.00;97574.03;4944424;28;20216;-65
2022/10/30 02:44:34;;;;;;;10.27;9.20;;;;;;;9.61;100.00;97568.72;4973744;28;20223;-65
2022/10/30 02:47:02;;;;;;;11.10;10.00;;;;;;;9.59;100.00;97568.91;4952053;28;20370;-67
2022/10/30 02:49:31;;;;;;;13.70;9.40;;;;;;;9.56;100.00;97571.91;4973413;28;20212;-66
2022/10/30 02:51:59;;;;;;;10.70;9.20;;;;;;;9.60;100.00;97573.22;4939089;28;20216;-66
2022/10/30 02:54:27;;;;;;;16.47;10.03;;;;;;;9.56;100.00;97570.06;4974177;28;20211;-67
2022/10/30 02:56:57;;;;;;;11.13;9.57;;;;;;;9.53;100.00;97572.22;4946418;28;20216;-67
2022/10/30 02:59:25;;;;;;;9.50;8.60;;;;;;;9.56;100.00;97571.91;4972079;28;20215;-65
2022/10/30 03:01:54;;;;;;;10.27;9.13;;;;;;;9.57;100.00;97576.19;4954354;28;20208;-66
2022/10/30 03:04:22;;;;;;;11.73;10.27;;;;;;;9.56;100.00;97571.91;4972969;28;20472;-68
2022/10/30 03:06:50;;;;;;;9.33;8.23;;;;;;;9.58;100.00;97574.34;4937089;28;20427;-66
2022/10/30 03:09:18;;;;;;;10.53;9.53;;;;;;;9.58;100.00;97582.28;4947720;28;20212;-65
2022/10/30 03:11:47;;;;;;;12.63;9.70;;;;;;;9.56;100.00;97567.41;4945931;28;20739;-65
2022/10/30 03:14:17;;;;;;;10.13;9.13;;;;;;;9.57;100.00;97570.91;4971922;28;20205;-66
2022/10/30 03:16:45;;;;;;;13.47;9.43;;;;;;;9.53;100.00;97570.41;4951252;28;22388;-67
2022/10/30 03:19:13;;;;;;;13.27;9.17;;;;;;;9.50;100.00;97576.03;4973831;28;20209;-66
2022/10/30 03:21:41;;;;;;;10.50;8.57;;;;;;;9.52;100.00;97575.88;4940002;28;20227;-66
2022/10/30 03:24:09;;;;;;;10.43;9.33;;;;;;;9.53;100.00;97582.81;4949473;28;20218;-66
2022/10/30 03:26:37;;;;;;;10.97;9.17;;;;;;;9.51;100.00;97575.03;4971416;28;20913;-67
2022/10/30 03:29:06;;;;;;;10.43;8.57;;;;;;;9.50;100.00;97569.94;4947119;28;20238;-69
2022/10/30 03:31:35;;;;;;;10.60;9.43;;;;;;;9.45;100.00;97574.88;4934013;28;20211;-68
2022/10/30 03:34:04;;;;;;;11.13;9.67;;;;;;;9.45;100.00;97569.56;4973151;28;20204;-67
2022/10/30 03:36:32;;;;;;;12.17;9.30;;;;;;;9.43;100.00;97564.47;4939983;28;20220;-66
2022/10/30 03:39:00;;;;;;;10.37;9.37;;;;;;;9.46;100.00;97565.94;4951092;28;20220;-67
2022/10/30 03:41:28;;;;;;;9.20;8.37;;;;;;;9.41;100.00;97569.91;4971565;28;20319;-68
2022/10/30 03:43:56;;;;;;;12.03;9.70;;;;;;;9.37;100.00;97565.94;4949614;28;20635;-66
2022/10/30 03:46:25;;;;;;;11.03;9.40;;;;;;;9.47;100.00;97562.28;4953413;28;20212;-67
2022/10/30 03:48:54;;;;;;;11.23;9.37;;;;;;;9.44;100.00;97562.63;4967041;28;20339;-60
2022/10/30 03:51:23;;;;;;;10.77;9.53;;;;;;;9.43;100.00;97560.97;4935487;28;20247;-63
2022/10/30 03:53:51;;;;;;;13.27;9.90;;;;;;;9.41;100.00;97550.59;4971482;28;20645;-62
2022/10/30 03:56:19;;;;;;;12.30;9.43;;;;;;;9.37;100.00;97551.91;4932371;28;20216;-63
2022/10/30 03:58:48;;;;;;;10.67;9.57;;;;;;;9.45;100.00;97556.34;4945898;28;20238;-62
2022/10/30 04:01:16;;;;;;;11.00;10.00;;;;;;;9.44;100.00;97552.91;4974023;28;20228;-62
2022/10/30 04:03:45;;;;;;;11.63;10.40;;;;;;;9.40;100.00;97552.41;4941131;28;20214;-62
2022/10/30 04:06:15;;;;;;;13.37;10.00;;;;;;;9.45;100.00;97556.34;4971971;28;20296;-62
2022/10/30 04:08:43;;;;;;;9.53;8.60;;;;;;;9.43;100.00;97564.47;4972948;28;20283;-62
2022/10/30 04:11:11;;;;;;;10.10;9.20;;;;;;;9.46;100.00;97560.66;4937830;28;21236;-67
2022/10/30 04:13:40;;;;;;;10.83;8.53;;;;;;;9.37;100.00;97558.03;4971025;28;20291;-67
2022/10/30 04:16:08;;;;;;;10.30;8.33;;;;;;;9.32;100.00;97564.81;4972764;28;20235;-67
2022/10/30 04:18:36;;;;;;;9.97;8.97;;;;;;;9.26;100.00;97564.47;4947849;28;20263;-68
2022/10/30 04:21:04;;;;;;;9.30;8.50;;;;;;;9.22;100.00;97555.22;4942403;28;20220;-69
2022/10/30 04:23:34;;;;;;;10.67;8.73;;;;;;;9.16;100.00;97561.16;4968457;28;20865;-68
2022/10/30 04:26:03;;;;;;;13.53;9.33;;;;;;;9.10;100.00;97559.19;4969048;28;21203;-66
2022/10/30 04:28:32;;;;;;;10.27;9.20;;;;;;;9.10;100.00;97562.69;4931446;28;20548;-66
2022/10/30 04:31:00;;;;;;;10.50;9.50;;;;;;;9.08;100.00;97559.34;4957967;28;20227;-68
2022/10/30 04:33:29;;;;;;;9.50;8.50;;;;;;;9.08;100.00;97555.91;4971607;28;20231;-68
2022/10/30 04:35:57;;;;;;;12.73;9.20;;;;;;;9.05;100.00;97550.94;4928016;28;20213;-65
2022/10/30 04:38:25;;;;;;;13.37;9.60;;;;;;;9.04;100.00;97547.47;4971513;28;20303;-63
2022/10/30 04:40:55;;;;;;;11.53;10.43;;;;;;;9.03;100.00;97550.28;4969323;28;20976;-67
2022/10/30 04:43:23;;;;;;;10.23;9.00;;;;;;;9.01;100.00;97552.25;4930713;28;20335;-66
2022/10/30 04:45:52;;;;;;;10.57;8.97;;;;;;;9.03;100.00;97550.28;4967805;28;20439;-69
2022/10/30 04:48:20;;;;;;;10.13;9.03;;;;;;;8.98;100.00;97554.25;4971227;28;20720;-67
2022/10/30 04:50:48;;;;;;;10.63;8.50;;;;;;;8.98;100.00;97540.19;4930572;28;20212;-66
2022/10/30 04:53:18;;;;;;;10.83;9.07;;;;;;;9.02;100.00;97548.63;4974066;28;20282;-66
2022/10/30 04:55:46;;;;;;;9.93;9.03;;;;;;;8.98;100.00;97545.47;4973190;28;21269;-66
2022/10/30 04:58:16;;;;;;;9.37;8.57;;;;;;;8.97;100.00;97549.13;4937509;28;20857;-66
2022/10/30 05:00:44;;;;;;;12.60;8.47;;;;;;;8.93;100.00;97550.44;4972168;28;20232;-67
2022/10/30 05:03:17;;;;;;;9.47;8.50;;;;;;;8.83;100.00;97534.72;4976530;28;20810;-68
2022/10/30 05:05:46;;;;;;;11.73;8.87;;;;;;;8.80;100.00;97538.53;4934104;28;20276;-66
2022/10/30 05:08:14;;;;;;;9.13;8.13;;;;;;;8.73;100.00;97534.06;4979107;28;20264;-67
2022/10/30 05:10:42;;;;;;;10.30;9.50;;;;;;;8.70;100.00;97535.22;4975694;28;20242;-68
2022/10/30 05:13:11;;;;;;;9.13;8.23;;;;;;;8.64;100.00;97531.44;4941234;28;20983;-65
2022/10/30 05:15:41;;;;;;;14.53;9.27;;;;;;;8.62;100.00;97532.56;4972780;28;20599;-67
2022/10/30 05:18:09;;;;;;;8.73;8.03;;;;;;;8.63;100.00;97527.13;4971306;28;20236;-68
2022/10/30 05:20:38;;;;;;;9.00;8.10;;;;;;;8.58;100.00;97526.81;4946406;28;21226;-66
2022/10/30 05:23:06;;;;;;;10.03;9.10;;;;;;;8.52;100.00;97530.91;4967097;28;20204;-64
2022/10/30 05:25:35;;;;;;;11.60;8.83;;;;;;;8.47;100.00;97522.63;4975257;28;20205;-65
2022/10/30 05:28:05;;;;;;;12.33;8.37;;;;;;;8.46;100.00;97528.03;4937861;28;20227;-65
2022/10/30 05:30:35;;;;;;;11.30;8.60;;;;;;;8.45;100.00;97529.03;4974096;28;20215;-66
2022/10/30 05:33:06;;;;;;;14.27;9.83;;;;;;;8.47;100.00;97530.53;4974333;28;20317;-68
2022/10/30 05:35:35;;;;;;;13.00;10.43;;;;;;;8.38;100.00;97524.41;4969842;28;21238;-66
2022/10/30 05:38:05;;;;;;;12.33;9.73;;;;;;;8.39;100.00;97531.34;4943700;28;20236;-68
2022/10/30 05:40:34;;;;;;;11.33;10.17;;;;;;;8.32;100.00;97532.97;4976063;28;21267;-68
2022/10/30 05:43:02;;;;;;;12.87;9.20;;;;;;;8.30;100.00;97534.09;4977434;28;20216;-65
2022/10/30 05:45:31;;;;;;;14.90;9.57;;;;;;;8.28;100.00;97534.28;4939690;28;20864;-63
2022/10/30 05:48:00;;;;;;;10.73;9.20;;;;;;;8.19;100.00;97528.16;4975153;28;20231;-66
2022/10/30 05:50:31;;;;;;;13.00;9.73;;;;;;;8.15;100.00;97531.28;4973475;28;20224;-64
2022/10/30 05:53:01;;;;;;;11.27;10.37;;;;;;;8.13;100.00;97527.94;4937127;28;20208;-65
2022/10/30 05:55:29;;;;;;;13.97;12.67;;;;;;;8.08;100.00;97533.72;4975071;28;20197;-69
2022/10/30 05:57:57;;;;;;;12.53;11.40;;;;;;;8.05;100.00;97542.78;4969876;28;20231;-65
2022/10/30 06:00:28;;;;;;;16.20;12.50;;;;;;;8.03;100.00;97533.38;4938224;28;20217;-67
2022/10/30 06:03:00;;;;;;;11.77;10.53;;;;;;;8.05;100.00;97537.50;4957148;28;20313;-65
2022/10/30 06:05:33;;;;;;;10.93;9.93;;;;;;;8.15;100.00;97541.84;4932634;28;20212;-64
2022/10/30 06:08:01;;;;;;;12.40;11.13;;;;;;;8.17;100.00;97537.22;4970739;28;20233;-64
2022/10/30 06:10:29;;;;;;;17.87;14.43;;;;;;;8.21;100.00;97530.63;4931747;28;20316;-67
2022/10/30 06:12:59;;;;;;;12.13;10.93;;;;;;;8.11;100.00;97541.31;4970156;28;20799;-65
2022/10/30 06:15:29;;;;;;;13.30;10.83;;;;;;;8.09;100.00;97538.81;4972695;28;20215;-66
2022/10/30 06:17:57;;;;;;;10.27;9.47;;;;;;;8.03;100.00;97539.47;4947781;28;21181;-64
2022/10/30 06:20:28;;;;;;;11.33;10.37;;;;;;;8.06;100.00;97547.06;4939067;28;20980;-65
2022/10/30 06:22:59;;;;;;;14.43;13.03;;;;;;;8.09;100.00;97532.75;4947574;28;20231;-67
2022/10/30 06:25:29;;;;;;;45.87;34.37;;;;;;;8.04;100.00;97535.84;4950710;28;20216;-64
2022/10/30 06:27:57;;;;;;;23.10;19.40;;;;;;;8.16;100.00;97539.03;4929434;28;20224;-65
2022/10/30 06:30:26;;;;;;;19.07;14.10;;;;;;;8.21;100.00;97535.91;4975489;28;20204;-66
2022/10/30 06:32:58;;;;;;;16.13;14.27;;;;;;;8.27;100.00;97537.91;4970909;28;20219;-66
2022/10/30 06:35:28;;;;;;;15.80;14.33;;;;;;;8.28;100.00;97539.56;4935020;28;20270;-65
2022/10/30 06:37:59;;;;;;;16.60;15.03;;;;;;;8.38;100.00;97545.53;4971352;28;20230;-65
2022/10/30 06:40:28;;;;;;;15.97;14.37;;;;;;;8.42;100.00;97542.56;4954504;28;22316;-65
2022/10/30 06:42:57;;;;;;;13.90;12.50;;;;;;;8.49;100.00;97554.13;4953556;28;20364;-65
2022/10/30 06:45:26;;;;;;;13.73;12.40;;;;;;;8.56;100.00;97551.72;4974963;28;20205;-66
2022/10/30 06:47:54;;;;;;;15.93;14.50;;;;;;;8.63;100.00;97550.06;4974235;28;20224;-64
2022/10/30 06:50:23;;;;;;;17.87;14.67;;;;;;;8.67;100.00;97548.75;4936391;28;20331;-65
2022/10/30 06:52:51;;;;;;;15.67;14.07;;;;;;;8.71;100.00;97550.06;4973843;28;20215;-58
2022/10/30 06:55:21;;;;;;;15.83;13.67;;;;;;;8.76;100.00;97553.06;4955988;28;20208;-61
2022/10/30 06:57:54;;;;;;;16.47;13.73;;;;;;;8.81;100.00;97544.63;4955742;28;20236;-59
2022/10/30 07:00:23;;;;;;;17.93;13.77;;;;;;;8.92;100.00;97551.44;4976249;28;20210;-61
2022/10/30 07:02:58;;;;;;;16.20;14.67;;;;;;;8.94;100.00;97549.44;4972653;28;20319;-59
2022/10/30 07:05:27;;;;;;;17.50;15.63;;;;;;;9.03;100.00;97556.38;4934808;28;20808;-58
2022/10/30 07:07:57;;;;;;;15.47;14.07;;;;;;;9.10;100.00;97561.84;4971318;28;21051;-60
2022/10/30 07:10:26;;;;;;;16.93;14.27;;;;;;;9.19;100.00;97563.47;4973869;28;20212;-60
2022/10/30 07:12:55;;;;;;;17.03;13.37;;;;;;;9.29;100.00;97568.59;4941157;28;20212;-59
2022/10/30 07:15:24;;;;;;;15.40;13.53;;;;;;;9.38;100.00;97567.59;4954531;28;21303;-62
2022/10/30 07:17:57;;;;;;;15.70;14.17;;;;;;;9.51;100.00;97569.75;4971250;28;20220;-65
2022/10/30 07:20:30;;;;;;;18.67;14.93;;;;;;;9.58;100.00;97574.34;4974759;28;20376;-66
2022/10/30 07:22:59;;;;;;;17.40;13.03;;;;;;;9.69;100.00;97574.84;4943328;28;20322;-66
2022/10/30 07:25:29;;;;;;;12.30;11.23;;;;;;;9.75;100.00;97569.84;4974399;28;20204;-65
2022/10/30 07:27:57;;;;;;;16.00;14.40;;;;;;;9.87;100.00;97571.16;4938177;28;21400;-66
2022/10/30 07:30:27;;;;;;;17.40;15.57;;;;;;;9.96;100.00;97577.25;4972327;28;20469;-65
2022/10/30 07:32:59;;;;;;;15.93;14.50;;;;;;;10.13;100.00;97572.72;4969647;28;20196;-65
2022/10/30 07:35:29;;;;;;;15.00;13.60;;;;;;;10.26;100.00;97575.66;4972344;28;20213;-63
2022/10/30 07:38:02;;;;;;;20.30;13.73;;;;;;;10.32;100.00;97570.66;4929641;28;20262;-64
2022/10/30 07:40:32;;;;;;;15.57;14.13;;;;;;;10.51;100.00;97572.91;4970628;28;21690;-64
2022/10/30 07:43:02;;;;;;;16.80;15.17;;;;;;;10.62;100.00;97571.69;4949631;28;20675;-63
2022/10/30 07:45:31;;;;;;;18.03;15.50;;;;;;;10.74;100.00;97574.78;4971444;28;21393;-64
2022/10/30 07:48:01;;;;;;;14.60;13.10;;;;;;;10.86;100.00;97572.56;4970447;28;21079;-64
2022/10/30 07:50:30;;;;;;;14.60;12.17;;;;;;;11.02;100.00;97576.06;4970958;28;20204;-62
2022/10/30 07:52:58;;;;;;;12.47;11.40;;;;;;;11.17;100.00;97561.03;4923419;28;21098;-63
2022/10/30 07:55:27;;;;;;;14.47;11.57;;;;;;;11.41;100.00;97572.44;4971700;28;20709;-63
2022/10/30 07:57:57;;;;;;;13.03;10.43;;;;;;;11.58;100.00;97575.78;4968038;28;20799;-62
2022/10/30 08:00:25;;;;;;;12.47;11.33;;;;;;;11.72;100.00;97571.50;4951526;28;20474;-63
2022/10/30 08:02:56;;;;;;;12.30;10.37;;;;;;;11.71;100.00;97557.38;4967857;28;20235;-64
2022/10/30 08:05:25;;;;;;;14.87;10.43;;;;;;;11.66;100.00;97561.59;4971629;28;20807;-61
2022/10/30 08:07:57;;;;;;;14.70;10.17;;;;;;;11.84;100.00;97567.38;4921373;28;20897;-63
2022/10/30 08:10:26;;;;;;;13.23;10.40;;;;;;;11.86;100.00;97560.03;4916991;28;21803;-62
2022/10/30 08:12:56;;;;;;;11.43;9.30;;;;;;;11.92;100.00;97569.13;4947737;28;20764;-61
2022/10/30 08:15:24;;;;;;;9.73;8.73;;;;;;;12.01;100.00;97568.03;4969302;28;20486;-62
2022/10/30 08:17:53;;;;;;;12.03;8.43;;;;;;;12.08;100.00;97562.81;4949726;28;20228;-60
2022/10/30 08:20:23;;;;;;;11.97;9.60;;;;;;;12.09;100.00;97563.63;4969364;28;20290;-62
2022/10/30 08:22:52;;;;;;;10.07;9.00;;;;;;;12.07;100.00;97558.53;4970864;28;20337;-62
2022/10/30 08:25:22;;;;;;;9.87;8.87;;;;;;;12.06;100.00;97567.50;4922347;28;21410;-62
2022/10/30 08:27:54;;;;;;;10.60;9.00;;;;;;;12.24;100.00;97563.63;4970640;28;20648;-61
2022/10/30 08:30:25;;;;;;;9.97;9.17;;;;;;;12.52;100.00;97563.78;4971310;28;20483;-63
2022/10/30 08:32:57;;;;;;;11.60;9.47;;;;;;;13.22;100.00;97552.59;4955132;28;20326;-62
2022/10/30 08:35:26;;;;;;;14.03;11.87;;;;;;;13.97;100.00;97556.63;4974076;28;20223;-64
2022/10/30 08:37:55;;;;;;;11.07;9.80;;;;;;;14.43;100.00;97534.69;4974600;28;20561;-61
2022/10/30 08:40:24;;;;;;;11.63;9.60;;;;;;;15.18;100.00;97528.50;4973731;28;20624;-62
2022/10/30 08:42:53;;;;;;;11.37;8.63;;;;;;;15.09;100.00;97526.22;4930205;28;20683;-62
2022/10/30 08:45:24;;;;;;;9.40;8.50;;;;;;;15.06;100.00;97524.78;4973638;28;20422;-63
2022/10/30 08:47:59;;;;;;;10.60;8.80;;;;;;;14.90;100.00;97526.81;4961301;28;20231;-62
2022/10/30 08:50:28;;;;;;;8.77;7.73;;;;;;;14.64;100.00;97524.91;4971515;28;20211;-63
2022/10/30 08:53:00;;;;;;;10.87;8.73;;;;;;;14.48;100.00;97523.44;4973475;28;21570;-62
2022/10/30 08:55:30;;;;;;;11.93;8.43;;;;;;;14.60;100.00;97518.34;4975364;28;20322;-62
2022/10/30 08:57:59;;;;;;;10.77;7.93;;;;;;;14.68;100.00;97519.97;4927321;28;20251;-62
2022/10/30 09:00:29;;;;;;;12.60;8.43;;;;;;;14.70;100.00;97516.13;4973230;28;20283;-64
2022/10/30 09:02:57;;;;;;;10.00;7.23;;;;;;;14.99;100.00;97521.28;4961904;28;20668;-62
2022/10/30 09:05:26;;;;;;;9.50;8.13;;;;;;;14.55;100.00;97512.75;4969101;28;20227;-61
2022/10/30 09:07:57;;;;;;;11.40;8.23;;;;;;;14.44;100.00;97515.00;4973516;28;20287;-61
2022/10/30 09:10:26;;;;;;;10.93;8.03;;;;;;;14.51;100.00;97515.03;4973470;28;21216;-64
2022/10/30 09:12:55;;;;;;;10.87;7.80;;;;;;;14.60;100.00;97518.34;4928946;28;20386;-63
2022/10/30 09:15:24;;;;;;;10.03;8.47;;;;;;;14.69;100.00;97516.28;4971725;28;20415;-63
2022/10/30 09:17:58;;;;;;;8.90;8.00;;;;;;;14.41;100.00;97504.75;4968666;28;21468;-66
2022/10/30 09:20:27;;;;;;;10.57;9.50;;;;;;;14.32;100.00;97514.75;4968831;28;20211;-63
2022/10/30 09:22:55;;;;;;;11.27;8.63;;;;;;;14.37;100.00;97505.31;4973707;28;20612;-61
2022/10/30 09:25:24;;;;;;;13.90;7.83;;;;;;;14.31;100.00;97509.63;4972564;28;21033;-64
2022/10/30 09:27:53;;;;;;;9.10;8.17;;;;;;;14.42;100.00;97510.91;4958224;28;20392;-60
2022/10/30 09:30:21;;;;;;;11.43;8.43;;;;;;;14.68;100.00;97512.81;4949621;28;20819;-64
2022/10/30 09:32:55;;;;;;;14.33;8.27;;;;;;;14.80;100.00;97518.41;4993562;28;20204;-62
2022/10/30 09:35:25;;;;;;;12.47;8.63;;;;;;;14.93;100.00;97519.44;4968992;28;20410;-64
2022/10/30 09:37:53;;;;;;;9.27;7.87;;;;;;;15.36;100.00;97516.34;4991080;28;20327;-62
2022/10/30 09:40:28;;;;;;;9.63;8.63;;;;;;;15.61;100.00;97508.53;4992774;28;20643;-62
2022/10/30 09:42:58;;;;;;;9.87;8.33;;;;;;;15.87;100.00;97506.81;4964971;28;20666;-61
2022/10/30 09:46:02;;;;;;;10.87;9.03;;;;;;;16.18;97.26;97502.63;4923246;28;20582;-62
2022/10/30 09:48:59;;;;;;;10.20;7.87;;;;;;;16.32;94.41;97500.72;4910272;28;20630;-63
2022/10/30 09:51:52;;;;;;;12.83;8.07;;;;;;;16.23;94.88;97511.88;4891227;28;20221;-62
2022/10/30 09:54:27;;;;;;;13.27;8.20;;;;;;;16.41;94.12;97509.31;4929471;28;20202;-61
2022/10/30 09:57:00;;;;;;;11.17;7.43;;;;;;;16.59;92.07;97497.09;4933827;28;21612;-62
2022/10/30 09:59:39;;;;;;;10.03;7.30;;;;;;;16.89;91.43;97502.63;4890117;28;20221;-61
2022/10/30 10:02:21;;;;;;;9.60;7.87;;;;;;;17.34;87.47;97492.84;4932663;28;20205;-61
2022/10/30 10:04:52;;;;;;;8.03;7.20;;;;;;;17.50;86.29;97494.97;4913957;28;20723;-62
2022/10/30 10:07:23;;;;;;;8.70;7.33;;;;;;;17.65;83.55;97494.63;4907853;28;20237;-62
2022/10/30 10:09:55;;;;;;;9.13;8.20;;;;;;;17.72;84.61;97488.38;4933433;28;20209;-62
2022/10/30 10:12:27;;;;;;;10.20;7.70;;;;;;;17.70;84.01;97477.06;4929420;28;20937;-62
2022/10/30 10:14:57;;;;;;;9.87;6.97;;;;;;;17.50;82.27;97494.13;4897461;28;20229;-62
2022/10/30 10:17:29;;;;;;;9.77;6.90;;;;;;;17.16;84.30;97466.84;4916367;28;20229;-62
2022/10/30 10:19:59;;;;;;;9.63;7.30;;;;;;;17.56;83.81;97492.44;4893815;28;20217;-63
2022/10/30 10:22:33;;;;;;;9.33;7.37;;;;;;;17.61;84.02;97490.72;4909819;28;20215;-63
2022/10/30 10:25:03;;;;;;;10.70;6.70;;;;;;;17.55;81.35;97488.94;4968066;28;20234;-63
2022/10/30 10:27:45;;;;;;;7.00;6.40;;;;;;;17.66;83.00;97484.69;4966967;28;20281;-62
2022/10/30 10:30:16;;;;;;;7.87;7.17;;;;;;;17.59;82.94;97483.97;4993790;28;20219;-62
2022/10/30 10:32:59;;;;;;;8.67;6.97;;;;;;;17.68;84.43;97487.19;4948490;28;20924;-64
2022/10/30 10:35:42;;;;;;;10.93;7.47;;;;;;;17.76;84.29;97484.19;4987907;28;20823;-62
2022/10/30 10:38:20;;;;;;;9.73;7.83;;;;;;;17.71;82.50;97484.84;4992188;28;20350;-62
2022/10/30 10:40:56;;;;;;;13.73;9.50;;;;;;;17.69;82.88;97475.41;4970890;28;20215;-61
2022/10/30 10:43:35;;;;;;;9.80;7.43;;;;;;;17.52;82.49;97475.19;4973414;28;20224;-63
2022/10/30 10:46:19;;;;;;;10.40;7.97;;;;;;;17.56;81.71;97477.16;4991835;28;20195;-62
2022/10/30 10:48:56;;;;;;;7.27;6.27;;;;;;;17.55;83.50;97467.50;4947548;28;21094;-61
2022/10/30 10:51:27;;;;;;;11.43;6.77;;;;;;;17.68;83.84;97471.09;4993934;28;20207;-62
2022/10/30 10:53:59;;;;;;;9.07;6.73;;;;;;;17.82;84.08;97475.25;4975914;28;20227;-62
2022/10/30 10:56:33;;;;;;;10.40;7.50;;;;;;;17.86;84.58;97472.97;4992631;28;20222;-64
2022/10/30 10:59:07;;;;;;;12.23;6.37;;;;;;;17.88;82.16;97473.56;4974315;28;20326;-59
2022/10/30 11:01:39;;;;;;;7.63;6.13;;;;;;;17.82;81.22;97469.91;5013736;28;20203;-58
2022/10/30 11:04:12;;;;;;;7.43;6.70;;;;;;;17.98;81.22;97478.38;4967201;28;20233;-58
2022/10/30 11:06:42;;;;;;;9.73;6.63;;;;;;;17.94;81.10;97465.41;5011788;28;20206;-59
2022/10/30 11:09:18;;;;;;;7.90;6.00;;;;;;;17.78;81.31;97474.88;5011469;28;20376;-57
2022/10/30 11:11:47;;;;;;;9.53;6.70;;;;;;;17.96;82.35;97467.06;4981832;28;20219;-59
2022/10/30 11:14:17;;;;;;;7.97;6.37;;;;;;;17.86;81.88;97468.41;4985937;28;20202;-59
2022/10/30 11:16:54;;;;;;;8.47;6.47;;;;;;;18.04;81.29;97469.47;5013166;28;20203;-59
2022/10/30 11:19:23;;;;;;;12.33;10.07;;;;;;;18.11;81.70;97470.22;4991799;28;20207;-59
2022/10/30 11:21:53;;;;;;;15.07;10.07;;;;;;;18.25;81.93;97475.41;4972713;28;20222;-58
2022/10/30 11:24:31;;;;;;;8.43;5.80;;;;;;;18.29;79.44;97472.03;5013948;28;20993;-56
2022/10/30 11:27:16;;;;;;;7.50;6.30;;;;;;;18.34;80.44;97471.34;4990514;28;20557;-57
2022/10/30 11:29:49;;;;;;;11.17;7.07;;;;;;;18.46;80.00;97461.50;4988422;28;20729;-57
2022/10/30 11:32:21;;;;;;;7.53;6.67;;;;;;;18.56;80.90;97460.13;4991202;28;20558;-57
2022/10/30 11:35:01;;;;;;;11.90;6.60;;;;;;;18.43;78.17;97463.81;5010222;28;21086;-59
2022/10/30 11:37:31;;;;;;;8.43;6.67;;;;;;;18.50;77.37;97457.31;4965115;28;20218;-59